Nearby METAR Reports

 

KMGY - Dayton, Ohio, USA
Distance from station: N 3mi, 5km
Updated: Sun, 20-May-2018 9:53pm EDT
Clear
Clear
 Wind from calm
Wind: Calm
Temperature: 72°F , 22°C
Dew Point: 66°F , 19°C
Humidity: 83%
Barometer: 30.09 inHg , 1019 hPa
Clouds: Clear
Visibility: 10 miles , 16 km
2018/05/21 01:53 KMGY 210153Z AUTO 00000KT 10SM CLR 22/19 A3009 RMK AO2 SLP183 T02170189
KMWO - Middletown/Hook, Ohio, USA
Distance from station: W 9mi, 14km
Updated: Sun, 20-May-2018 10:35pm EDT
Fog, Overcast
Fog, Overcast
 Wind from calm
Wind: Calm
Temperature: 68°F , 20°C
Dew Point: 66°F , 19°C
Humidity: 94%
Barometer: 30.12 inHg , 1020 hPa
Summary: Fog
Clouds: Overcast
Visibility: 1/4 mile , 0.4 km
Cloud details: Overcast 200 ft
2018/05/21 02:35 KMWO 210235Z AUTO 00000KT 1/4SM FG VV002 20/19 A3012 RMK AO2 T01960195
 
KHAO - Hamilton, Ohio, USA
Distance from station: SW 20mi, 32km
Updated: Wed, 31-Dec-1969 7:00pm EST
NOT Current
unable to load KHAO data RC=404 Not Found
unable to load KHAO data RC=404 Not Found
 
KFFO - Wright Paterson, Ohio, USA
Distance from station: NNE 21mi, 34km
Updated: Sun, 20-May-2018 9:56pm EDT
Clear
Clear
 Wind from ENE
Wind: ENE 9 mph , 15 km/h
Temperature: 70°F , 21°C
Dew Point: 63°F , 17°C
Humidity: 78%
Barometer: 30.11 inHg , 1019.6 hPa
Clouds: Clear
Visibility: 10 miles , 16 km
2018/05/21 01:56 KFFO 210156Z AUTO 07008KT 10SM CLR 21/17 A3011 RMK AO2 SLP196 T02100168 $
 
KDAY - Dayton, Ohio, USA
Distance from station: N 24mi, 39km
Updated: Sun, 20-May-2018 9:56pm EDT
Mostly cloudy
Mostly cloudy
 Wind from ENE
Wind: ENE 8 mph , 13 km/h
Temperature: 68°F , 20°C
Dew Point: 64°F , 18°C
Humidity: 88%
Barometer: 30.12 inHg , 1020 hPa
Clouds: Mostly cloudy
Visibility: 10 miles , 16 km
Cloud details: Few Clouds 12000 ft
Mostly cloudy 25000 ft
2018/05/21 01:56 KDAY 210156Z 06007KT 10SM FEW120 BKN250 20/18 A3012 RMK AO2 SLP194 T02000178
KILN - Wilmington, Ohio, USA
Distance from station: ESE 25mi, 39km
Updated: Sun, 20-May-2018 9:54pm EDT
Clear
Clear
 Wind from E
Wind: E 3 mph , 6 km/h
Temperature: 70°F , 21°C
Dew Point: 66°F , 19°C
Humidity: 88%
Barometer: 30.10 inHg , 1019.3 hPa
Clouds: Clear
Visibility: 10 miles , 16 km
2018/05/21 01:54 KILN 210154Z AUTO 09003KT 10SM CLR 21/19 A3010 RMK AO2 SLP186 T02110189
 
KSGH - Springfield Muni, Ohio, USA
Distance from station: NE 29mi, 46km
Updated: Sun, 20-May-2018 9:56pm EDT
Clear
Clear
 Wind from NE
Wind: NE 8 mph , 13 km/h
Temperature: 66°F , 19°C
Dew Point: 61°F , 16°C
Humidity: 83%
Barometer: 30.12 inHg , 1020 hPa
Clouds: Clear
Visibility: 10 miles , 16 km
2018/05/21 01:56 KSGH 210156Z AUTO 05007KT 10SM CLR 19/16 A3012 RMK AO2 SLP196 T01890161
KI69 - Batavia, Ohio, USA
Distance from station: S 32mi, 52km
Updated: Wed, 31-Dec-1969 7:00pm EST
NOT Current
unable to load KI69 data RC=404 Not Found
unable to load KI69 data RC=404 Not Found
 
 
KLUK - Cincinnat/Lunken, Ohio, USA
Distance from station: SSW 33mi, 53km
Updated: Sun, 20-May-2018 9:53pm EDT
Clear
Clear
 Wind from varies
Wind: varies 5 mph , 7 km/h
Temperature: 70°F , 21°C
Dew Point: 66°F , 19°C
Humidity: 88%
Barometer: 30.09 inHg , 1019 hPa
Clouds: Clear
Visibility: 10 miles , 16 km
2018/05/21 01:53 KLUK 210153Z VRB04KT 10SM CLR 21/19 A3009 RMK AO2 SLP185 T02060189 $
KCVG - Covington, Kentucky, USA
Distance from station: SSW 42mi, 67km
Updated: Sun, 20-May-2018 9:52pm EDT
Partly cloudy
Partly cloudy
 Wind from E
Wind: E 6 mph , 9 km/h
Temperature: 72°F , 22°C
Dew Point: 64°F , 18°C
Humidity: 78%
Barometer: 30.09 inHg , 1019 hPa
Clouds: Partly cloudy
Visibility: 10 miles , 16 km
Cloud details: Partly cloudy 25000 ft
2018/05/21 01:52 KCVG 210152Z 10005KT 10SM SCT250 22/18 A3009 RMK AO2 SLP179 T02220178
 
KVES - Versailles, Ohio, USA
Distance from station: NNW 47mi, 76km
Updated: Sun, 20-May-2018 10:30pm EDT
Clear
Clear
 Wind from NE
Wind: NE 6 mph , 9 km/h
Temperature: 64°F , 18°C
Dew Point: 63°F , 17°C
Humidity: 94%
Barometer: 30.14 inHg , 1020.7 hPa
Clouds: Clear
Visibility: 10 miles , 16 km
2018/05/21 02:30 KVES 210230Z AUTO 05005KT 10SM CLR 18/17 A3014 RMK AO2